createdAt,value
2022-11-10T00:00:30.505Z,8.90
2022-11-10T00:03:01.593Z,8.70
2022-11-10T00:05:31.431Z,8.70
2022-11-10T00:08:03.313Z,8.70
2022-11-10T00:10:31.986Z,8.70
2022-11-10T00:13:03.024Z,8.70
2022-11-10T00:15:48.639Z,8.70
2022-11-10T00:18:16.730Z,8.70
2022-11-10T00:20:48.287Z,8.70
2022-11-10T00:23:22.371Z,8.70
2022-11-10T00:25:50.756Z,8.70
2022-11-10T00:28:18.992Z,8.70
2022-11-10T00:30:47.145Z,8.70
2022-11-10T00:33:15.280Z,8.70
2022-11-10T00:35:43.301Z,8.70
2022-11-10T00:38:12.813Z,8.70
2022-11-10T00:40:51.227Z,8.80
2022-11-10T00:43:23.877Z,8.70
2022-11-10T00:45:56.526Z,8.80
2022-11-10T00:48:24.659Z,8.70
2022-11-10T00:50:52.848Z,8.80
2022-11-10T00:53:22.741Z,8.70
2022-11-10T00:55:51.468Z,8.80
2022-11-10T00:58:19.740Z,8.70
2022-11-10T01:00:47.837Z,8.70
2022-11-10T01:03:16.993Z,8.70
2022-11-10T01:05:45.644Z,8.80
2022-11-10T01:08:13.739Z,8.80
2022-11-10T01:10:43.199Z,8.80
2022-11-10T01:13:11.507Z,8.80
2022-11-10T01:15:40.363Z,8.80
2022-11-10T01:18:08.881Z,8.80
2022-11-10T01:20:37.394Z,8.80
2022-11-10T01:23:05.423Z,8.80
2022-11-10T01:25:33.736Z,8.80
2022-11-10T01:28:03.374Z,8.80
2022-11-10T01:30:31.457Z,8.80
2022-11-10T01:33:01.388Z,8.80
2022-11-10T01:35:29.452Z,8.70
2022-11-10T01:37:57.554Z,8.60
2022-11-10T01:40:25.724Z,8.50
2022-11-10T01:42:55.321Z,8.50
2022-11-10T01:45:44.622Z,8.40
2022-11-10T01:48:14.915Z,8.40
2022-11-10T01:50:43.473Z,8.30
2022-11-10T01:53:14.653Z,8.30
2022-11-10T01:55:44.446Z,8.30
2022-11-10T01:58:13.878Z,8.20
2022-11-10T02:00:43.714Z,8.20
2022-11-10T02:03:13.958Z,8.30
2022-11-10T02:05:42.786Z,8.20
2022-11-10T02:08:11.614Z,8.20
2022-11-10T02:10:39.756Z,8.20
2022-11-10T02:13:08.049Z,8.30
2022-11-10T02:15:36.201Z,8.40
2022-11-10T02:18:05.761Z,8.50
2022-11-10T02:20:34.018Z,8.50
2022-11-10T02:23:13.259Z,8.50
2022-11-10T02:25:41.425Z,8.60
2022-11-10T02:28:09.927Z,8.50
2022-11-10T02:30:38.078Z,8.50
2022-11-10T02:33:06.196Z,8.50
2022-11-10T02:35:34.396Z,8.50
2022-11-10T02:38:02.513Z,8.50
2022-11-10T02:40:35.131Z,8.40
2022-11-10T02:43:03.333Z,8.40
2022-11-10T02:45:32.636Z,8.30
2022-11-10T02:48:00.760Z,8.30
2022-11-10T02:50:28.948Z,8.20
2022-11-10T02:52:57.019Z,8.30
2022-11-10T02:55:25.069Z,8.20
2022-11-10T02:57:54.746Z,8.20
2022-11-10T03:00:22.946Z,8.20
2022-11-10T03:02:56.534Z,8.10
2022-11-10T03:05:24.716Z,8.10
2022-11-10T03:07:55.275Z,8.20
2022-11-10T03:10:23.389Z,8.20
2022-11-10T03:12:54.376Z,8.20
2022-11-10T03:15:26.652Z,8.10
2022-11-10T03:17:55.149Z,8.20
2022-11-10T03:20:23.223Z,8.20
2022-11-10T03:22:51.257Z,8.30
2022-11-10T03:25:21.626Z,8.30
2022-11-10T03:27:49.727Z,8.40
2022-11-10T03:30:17.830Z,8.40
2022-11-10T03:32:47.285Z,8.40
2022-11-10T03:35:15.550Z,8.40
2022-11-10T03:37:43.617Z,8.40
2022-11-10T03:40:12.082Z,8.30
2022-11-10T03:42:43.099Z,8.30
2022-11-10T03:45:11.521Z,8.30
2022-11-10T03:47:39.799Z,8.40
2022-11-10T03:50:09.940Z,8.40
2022-11-10T03:52:39.912Z,8.40
2022-11-10T03:55:08.315Z,8.40
2022-11-10T03:57:36.400Z,8.40
2022-11-10T04:00:05.080Z,8.40
2022-11-10T04:02:33.171Z,8.50
2022-11-10T04:05:18.575Z,8.40
2022-11-10T04:08:05.404Z,8.40
2022-11-10T04:10:36.353Z,8.40
2022-11-10T04:13:24.005Z,8.40
2022-11-10T04:15:53.352Z,8.40
2022-11-10T04:18:29.982Z,8.40
2022-11-10T04:20:59.073Z,8.40
2022-11-10T04:23:30.749Z,8.40
2022-11-10T04:26:20.184Z,8.20
2022-11-10T04:28:49.161Z,8.20
2022-11-10T04:31:17.747Z,8.20
2022-11-10T04:33:46.381Z,8.10
2022-11-10T04:36:15.621Z,8.10
2022-11-10T04:38:45.172Z,8.10
2022-11-10T04:41:13.700Z,8.10
2022-11-10T04:43:41.820Z,8.10
2022-11-10T04:46:23.177Z,8.00
2022-11-10T04:48:51.925Z,8.00
2022-11-10T04:51:20.589Z,8.00
2022-11-10T04:53:50.243Z,7.90
2022-11-10T04:56:20.834Z,7.90
2022-11-10T04:58:49.036Z,7.90
2022-11-10T05:01:18.054Z,8.00
2022-11-10T05:03:46.733Z,8.10
2022-11-10T05:06:14.822Z,8.10
2022-11-10T05:08:43.585Z,8.10
2022-11-10T05:11:13.550Z,8.20
2022-11-10T05:13:41.686Z,8.20
2022-11-10T05:16:10.012Z,8.20
2022-11-10T05:18:41.416Z,8.20
2022-11-10T05:21:09.657Z,8.20
2022-11-10T05:23:41.144Z,8.20
2022-11-10T05:26:10.621Z,8.10
2022-11-10T05:28:40.627Z,8.10
2022-11-10T05:31:08.935Z,8.10
2022-11-10T05:33:37.900Z,8.10
2022-11-10T05:36:06.541Z,8.00
2022-11-10T05:38:39.068Z,8.10
2022-11-10T05:41:10.104Z,8.00
2022-11-10T05:43:38.409Z,8.00
2022-11-10T05:46:07.940Z,7.90
2022-11-10T05:48:36.047Z,8.00
2022-11-10T05:51:04.442Z,7.90
2022-11-10T05:53:32.604Z,7.90
2022-11-10T05:56:00.695Z,8.00
2022-11-10T05:58:28.970Z,8.00
2022-11-10T06:01:00.134Z,8.00
2022-11-10T06:03:29.897Z,7.90
2022-11-10T06:05:58.382Z,7.90
2022-11-10T06:08:26.476Z,7.90
2022-11-10T06:10:54.770Z,7.80
2022-11-10T06:13:23.250Z,7.80
2022-11-10T06:15:51.635Z,7.80
2022-11-10T06:18:19.933Z,7.80
2022-11-10T06:20:50.733Z,7.70
2022-11-10T06:23:18.964Z,7.70
2022-11-10T06:25:47.296Z,7.70
2022-11-10T06:28:15.927Z,7.70
2022-11-10T06:30:44.025Z,7.60
2022-11-10T06:33:12.132Z,7.60
2022-11-10T06:35:40.498Z,7.70
2022-11-10T06:38:11.717Z,7.80
2022-11-10T06:40:40.003Z,7.80
2022-11-10T06:43:08.096Z,7.90
2022-11-10T06:45:36.277Z,7.90
2022-11-10T06:48:05.961Z,7.90
2022-11-10T06:50:34.583Z,7.90
2022-11-10T06:53:03.189Z,7.90
2022-11-10T06:55:32.841Z,7.90
2022-11-10T06:58:01.001Z,7.90
2022-11-10T07:00:29.995Z,7.90
2022-11-10T07:03:01.901Z,8.00
2022-11-10T07:05:30.336Z,8.00
2022-11-10T07:08:02.697Z,8.10
2022-11-10T07:10:32.421Z,8.10
2022-11-10T07:13:01.157Z,8.10
2022-11-10T07:15:29.586Z,8.10
2022-11-10T07:17:57.688Z,8.20
2022-11-10T07:20:26.294Z,8.20
2022-11-10T07:22:58.325Z,8.20
2022-11-10T07:25:26.456Z,8.20
2022-11-10T07:27:56.283Z,8.30
2022-11-10T07:30:24.566Z,8.30
2022-11-10T07:33:01.405Z,8.30
2022-11-10T07:35:29.996Z,8.30
2022-11-10T07:37:58.214Z,8.30
2022-11-10T07:40:28.988Z,8.40
2022-11-10T07:42:58.531Z,8.30
2022-11-10T07:45:26.886Z,8.40
2022-11-10T07:48:01.960Z,8.40
2022-11-10T07:50:30.564Z,8.40
2022-11-10T07:53:05.200Z,8.40
2022-11-10T07:55:33.544Z,8.40
2022-11-10T07:58:03.318Z,8.40
2022-11-10T08:00:31.489Z,8.40
2022-11-10T08:03:02.986Z,8.40
2022-11-10T08:05:31.098Z,8.40
2022-11-10T08:08:00.245Z,8.40
2022-11-10T08:10:28.416Z,8.40
2022-11-10T08:12:57.619Z,8.40
2022-11-10T08:15:27.710Z,8.40
2022-11-10T08:17:59.277Z,8.40
2022-11-10T08:20:27.352Z,8.40
2022-11-10T08:22:58.181Z,8.40
2022-11-10T08:25:30.278Z,8.40
2022-11-10T08:28:02.229Z,8.50
2022-11-10T08:30:32.009Z,8.50
2022-11-10T08:33:01.655Z,8.50
2022-11-10T08:35:30.853Z,8.50
2022-11-10T08:37:59.019Z,8.50
2022-11-10T08:40:28.823Z,8.50
2022-11-10T08:43:00.538Z,8.60
2022-11-10T08:45:28.786Z,8.60
2022-11-10T08:48:03.362Z,8.60
2022-11-10T08:50:31.561Z,8.60
2022-11-10T08:53:02.384Z,8.60
2022-11-10T08:55:30.576Z,8.60
2022-11-10T08:58:01.820Z,8.60
2022-11-10T09:00:30.253Z,8.50
2022-11-10T09:02:58.648Z,8.50
2022-11-10T09:05:28.124Z,8.60
2022-11-10T09:07:56.200Z,8.60
2022-11-10T09:10:24.321Z,8.60
2022-11-10T09:12:52.410Z,8.60
2022-11-10T09:15:20.891Z,8.60
2022-11-10T09:17:49.004Z,8.60
2022-11-10T09:20:17.409Z,8.50
2022-11-10T09:22:46.866Z,8.50
2022-11-10T09:25:14.968Z,8.60
2022-11-10T09:27:43.470Z,8.60
2022-11-10T09:30:17.414Z,8.60
2022-11-10T09:32:47.344Z,8.70
2022-11-10T09:35:15.629Z,8.70
2022-11-10T09:37:43.681Z,8.80
2022-11-10T09:40:17.328Z,8.80
2022-11-10T09:42:46.638Z,8.90
2022-11-10T09:45:19.513Z,8.90
2022-11-10T09:47:57.478Z,9.00
2022-11-10T09:50:31.153Z,9.00
2022-11-10T09:53:00.193Z,9.00
2022-11-10T09:55:33.175Z,9.10
2022-11-10T09:58:01.934Z,9.10
2022-11-10T10:00:32.533Z,9.20
2022-11-10T10:03:02.849Z,9.20
2022-11-10T10:05:39.581Z,9.20
2022-11-10T10:08:12.244Z,9.30
2022-11-10T10:10:44.651Z,9.30
2022-11-10T10:13:21.310Z,9.30
2022-11-10T10:15:55.513Z,9.40
2022-11-10T10:18:26.537Z,9.40
2022-11-10T10:21:04.425Z,9.40
2022-11-10T10:24:07.317Z,9.40
2022-11-10T10:26:25.342Z,9.50
2022-11-10T10:28:53.559Z,9.50
2022-11-10T10:31:24.477Z,9.60
2022-11-10T10:33:53.511Z,9.60
2022-11-10T10:36:24.894Z,9.60
2022-11-10T10:38:55.497Z,9.70
2022-11-10T10:41:26.229Z,9.70
2022-11-10T10:43:56.090Z,9.70
2022-11-10T10:46:28.318Z,9.70
2022-11-10T10:49:27.843Z,9.80
2022-11-10T10:52:03.793Z,9.80
2022-11-10T10:54:32.602Z,9.80
2022-11-10T10:57:23.071Z,9.90
2022-11-10T10:59:51.349Z,9.90
2022-11-10T11:02:23.783Z,9.80
2022-11-10T11:05:09.841Z,9.80
2022-11-10T11:07:38.114Z,9.90
2022-11-10T11:10:18.989Z,10.00
2022-11-10T11:12:48.564Z,10.00
2022-11-10T11:15:21.858Z,9.90
2022-11-10T11:17:57.057Z,9.90
2022-11-10T11:20:33.582Z,9.90
2022-11-10T11:23:04.738Z,9.90
2022-11-10T11:25:34.807Z,9.90
2022-11-10T11:28:08.267Z,9.90
2022-11-10T11:30:43.798Z,9.90
2022-11-10T11:33:17.284Z,9.90
2022-11-10T11:35:47.710Z,9.90
2022-11-10T11:38:16.997Z,9.90
2022-11-10T11:40:48.308Z,9.80
2022-11-10T11:43:33.731Z,9.80
2022-11-10T11:46:06.541Z,9.80
2022-11-10T11:48:41.438Z,9.80
2022-11-10T11:51:13.340Z,9.80
2022-11-10T11:53:47.858Z,9.80
2022-11-10T11:56:21.059Z,9.80
2022-11-10T11:58:59.673Z,9.80
2022-11-10T12:01:35.333Z,9.80
2022-11-10T12:04:21.806Z,9.80
2022-11-10T12:06:55.407Z,9.80
2022-11-10T12:09:32.006Z,9.80
2022-11-10T12:12:03.939Z,9.70
2022-11-10T12:14:42.391Z,9.70
2022-11-10T12:17:13.690Z,9.70
2022-11-10T12:19:44.744Z,9.70
2022-11-10T12:22:18.053Z,9.70
2022-11-10T12:24:50.377Z,9.70
2022-11-10T12:27:20.834Z,9.70
2022-11-10T12:29:54.014Z,9.80
2022-11-10T12:32:26.877Z,9.80
2022-11-10T12:34:57.546Z,9.70
2022-11-10T12:37:38.390Z,9.70
2022-11-10T12:40:13.964Z,9.70
2022-11-10T12:42:43.198Z,9.60
2022-11-10T12:45:20.814Z,9.60
2022-11-10T12:47:49.651Z,9.50
2022-11-10T12:50:26.173Z,9.50
2022-11-10T12:52:59.419Z,9.50
2022-11-10T12:55:31.726Z,9.50
2022-11-10T12:58:01.557Z,9.50
2022-11-10T13:00:32.651Z,9.50
2022-11-10T13:03:00.870Z,9.40
2022-11-10T13:05:31.325Z,9.30
2022-11-10T13:08:13.450Z,9.40
2022-11-10T13:10:49.182Z,9.40
2022-11-10T13:13:17.493Z,9.40
2022-11-10T13:15:51.490Z,9.40
2022-11-10T13:18:47.603Z,9.40
2022-11-10T13:21:16.018Z,9.40
2022-11-10T13:24:02.735Z,9.40
2022-11-10T13:26:50.473Z,9.40
2022-11-10T13:29:29.396Z,9.30
2022-11-10T13:31:59.684Z,9.30
2022-11-10T13:34:33.478Z,9.20
2022-11-10T13:37:01.734Z,9.20
2022-11-10T13:39:31.257Z,9.20
2022-11-10T13:42:14.158Z,9.10
2022-11-10T13:44:43.761Z,9.10
2022-11-10T13:47:35.097Z,9.10
2022-11-10T13:50:07.234Z,9.10
2022-11-10T13:52:44.095Z,9.00
2022-11-10T13:55:20.310Z,8.90
2022-11-10T13:57:58.447Z,8.90
2022-11-10T14:00:28.309Z,8.90
2022-11-10T14:03:01.030Z,8.90
2022-11-10T14:06:03.521Z,8.90
2022-11-10T14:08:46.862Z,8.80
2022-11-10T14:11:19.287Z,8.80
2022-11-10T14:13:48.925Z,8.80
2022-11-10T14:16:21.010Z,8.70
2022-11-10T14:18:57.009Z,8.70
2022-11-10T14:21:28.764Z,8.70
2022-11-10T14:24:00.038Z,8.60
2022-11-10T14:26:34.428Z,8.60
2022-11-10T14:29:20.338Z,8.50
2022-11-10T14:31:48.816Z,8.50
2022-11-10T14:34:19.321Z,8.50
2022-11-10T14:36:54.104Z,8.50
2022-11-10T14:39:25.011Z,8.50
2022-11-10T14:41:53.917Z,8.40
2022-11-10T14:44:23.411Z,8.50
2022-11-10T14:46:51.818Z,8.40
2022-11-10T14:49:25.234Z,8.40
2022-11-10T14:51:56.344Z,8.30
2022-11-10T14:54:26.249Z,8.30
2022-11-10T14:56:54.862Z,8.40
2022-11-10T14:59:23.670Z,8.30
2022-11-10T15:01:54.762Z,8.30
2022-11-10T15:04:26.854Z,8.30
2022-11-10T15:06:55.885Z,8.20
2022-11-10T15:09:25.340Z,8.20
2022-11-10T15:11:54.621Z,8.20
2022-11-10T15:14:39.692Z,8.20
2022-11-10T15:17:09.373Z,8.20
2022-11-10T15:19:39.633Z,8.20
2022-11-10T15:22:16.571Z,8.20
2022-11-10T15:24:45.246Z,8.20
2022-11-10T15:27:15.109Z,8.20
2022-11-10T15:29:43.398Z,8.20
2022-11-10T15:32:16.488Z,8.20
2022-11-10T15:34:46.812Z,8.30
2022-11-10T15:37:30.482Z,8.20
2022-11-10T15:40:13.833Z,8.20
2022-11-10T15:42:41.905Z,8.20
2022-11-10T15:45:10.222Z,8.20
2022-11-10T15:47:38.330Z,8.20
2022-11-10T15:50:12.584Z,8.20
2022-11-10T15:52:41.002Z,8.20
2022-11-10T15:55:20.171Z,8.20
2022-11-10T15:57:48.352Z,8.20
2022-11-10T16:00:16.669Z,8.10
2022-11-10T16:02:45.004Z,8.00
2022-11-10T16:05:14.871Z,8.00
2022-11-10T16:07:42.971Z,7.90
2022-11-10T16:10:11.206Z,7.90
2022-11-10T16:12:39.531Z,7.90
2022-11-10T16:15:07.957Z,7.90
2022-11-10T16:17:36.127Z,7.80
2022-11-10T16:20:04.408Z,7.80
2022-11-10T16:22:34.101Z,7.70
2022-11-10T16:25:02.151Z,7.70
2022-11-10T16:27:30.299Z,7.70
2022-11-10T16:29:58.397Z,7.80
2022-11-10T16:32:26.464Z,7.80
2022-11-10T16:34:55.177Z,7.80
2022-11-10T16:37:23.462Z,7.80
2022-11-10T16:39:53.134Z,7.80
2022-11-10T16:42:21.280Z,7.80
2022-11-10T16:44:50.922Z,7.80
2022-11-10T16:47:19.826Z,7.80
2022-11-10T16:49:49.277Z,7.80
2022-11-10T16:52:17.594Z,7.80
2022-11-10T16:54:45.691Z,7.80
2022-11-10T16:57:15.844Z,7.90
2022-11-10T16:59:45.826Z,7.90
2022-11-10T17:02:23.592Z,7.90
2022-11-10T17:04:51.794Z,7.90
2022-11-10T17:07:21.821Z,7.90
2022-11-10T17:09:52.404Z,7.80
2022-11-10T17:12:21.910Z,7.80
2022-11-10T17:14:50.054Z,7.80
2022-11-10T17:17:19.780Z,7.80
2022-11-10T17:19:48.508Z,7.80
2022-11-10T17:22:18.302Z,7.80
2022-11-10T17:24:47.001Z,7.80
2022-11-10T17:27:16.932Z,7.80
2022-11-10T17:29:46.617Z,7.90
2022-11-10T17:32:14.750Z,8.00
2022-11-10T17:34:42.769Z,7.90
2022-11-10T17:37:12.542Z,7.90
2022-11-10T17:39:41.051Z,7.90
2022-11-10T17:42:12.066Z,7.90
2022-11-10T17:44:40.124Z,7.90
2022-11-10T17:47:09.589Z,7.90
2022-11-10T17:49:37.789Z,7.90
2022-11-10T17:52:05.867Z,7.90
2022-11-10T17:54:33.998Z,7.90
2022-11-10T17:57:04.556Z,8.00
2022-11-10T17:59:32.731Z,7.90
2022-11-10T18:02:01.703Z,7.90
2022-11-10T18:04:31.945Z,8.00
2022-11-10T18:07:00.152Z,8.00
2022-11-10T18:09:28.381Z,8.00
2022-11-10T18:11:56.636Z,8.00
2022-11-10T18:14:24.684Z,8.10
2022-11-10T18:16:52.886Z,8.00
2022-11-10T18:19:23.959Z,8.10
2022-11-10T18:21:53.576Z,8.10
2022-11-10T18:24:21.684Z,8.10
2022-11-10T18:26:49.973Z,8.10
2022-11-10T18:29:18.081Z,8.10
2022-11-10T18:31:46.167Z,8.20
2022-11-10T18:34:14.203Z,8.20
2022-11-10T18:36:42.363Z,8.20
2022-11-10T18:39:11.977Z,8.20
2022-11-10T18:41:52.587Z,8.20
2022-11-10T18:44:21.219Z,8.20
2022-11-10T18:46:49.593Z,8.20
2022-11-10T18:49:18.180Z,8.20
2022-11-10T18:51:46.297Z,8.10
2022-11-10T18:54:15.804Z,8.10
2022-11-10T18:56:44.082Z,8.10
2022-11-10T18:59:12.184Z,8.10
2022-11-10T19:01:42.665Z,8.10
2022-11-10T19:04:11.357Z,8.10
2022-11-10T19:06:39.784Z,8.10
2022-11-10T19:09:08.505Z,8.10
2022-11-10T19:11:37.997Z,8.10
2022-11-10T19:14:06.248Z,8.10
2022-11-10T19:16:34.509Z,8.20
2022-11-10T19:19:03.123Z,8.10
2022-11-10T19:21:31.448Z,8.20
2022-11-10T19:24:01.242Z,8.10
2022-11-10T19:26:29.553Z,8.20
2022-11-10T19:28:59.161Z,8.20
2022-11-10T19:31:27.368Z,8.20
2022-11-10T19:33:56.072Z,8.30
2022-11-10T19:36:25.305Z,8.30
2022-11-10T19:38:54.584Z,8.30
2022-11-10T19:41:23.249Z,8.30
2022-11-10T19:43:51.372Z,8.30
2022-11-10T19:46:21.661Z,8.30
2022-11-10T19:48:49.721Z,8.30
2022-11-10T19:51:20.008Z,8.30
2022-11-10T19:53:51.060Z,8.40
2022-11-10T19:56:20.884Z,8.40
2022-11-10T19:58:51.058Z,8.40
2022-11-10T20:01:21.183Z,8.40
2022-11-10T20:03:52.320Z,8.40
2022-11-10T20:06:21.370Z,8.40
2022-11-10T20:08:49.741Z,8.40
2022-11-10T20:11:18.606Z,8.50
2022-11-10T20:13:49.732Z,8.50
2022-11-10T20:16:21.713Z,8.50
2022-11-10T20:18:50.011Z,8.50
2022-11-10T20:21:20.969Z,8.50
2022-11-10T20:23:52.625Z,8.50
2022-11-10T20:26:21.052Z,8.50
2022-11-10T20:28:49.368Z,8.50
2022-11-10T20:31:20.425Z,8.50
2022-11-10T20:33:51.413Z,8.60
2022-11-10T20:36:21.351Z,8.60
2022-11-10T20:38:49.592Z,8.60
2022-11-10T20:41:18.925Z,8.60
2022-11-10T20:43:47.049Z,8.60
2022-11-10T20:46:33.271Z,8.60
2022-11-10T20:49:05.920Z,8.60
2022-11-10T20:51:34.151Z,8.60
2022-11-10T20:54:02.716Z,8.60
2022-11-10T20:56:30.770Z,8.60
2022-11-10T20:58:59.961Z,8.60
2022-11-10T21:01:28.065Z,8.60
2022-11-10T21:03:56.251Z,8.70
2022-11-10T21:06:25.883Z,8.80
2022-11-10T21:08:56.609Z,8.80
2022-11-10T21:11:39.073Z,8.70
2022-11-10T21:14:07.225Z,8.80
2022-11-10T21:16:35.288Z,8.70
2022-11-10T21:19:03.435Z,8.80
2022-11-10T21:21:35.214Z,8.80
2022-11-10T21:24:06.850Z,8.80
2022-11-10T21:26:35.820Z,8.80
2022-11-10T21:29:06.126Z,8.80
2022-11-10T21:31:34.499Z,8.90
2022-11-10T21:34:02.800Z,8.80
2022-11-10T21:36:32.253Z,8.90
2022-11-10T21:39:00.419Z,8.90
2022-11-10T21:41:28.559Z,8.80
2022-11-10T21:43:56.680Z,8.90
2022-11-10T21:46:25.151Z,8.90
2022-11-10T21:48:53.718Z,8.90
2022-11-10T21:51:21.833Z,8.90
2022-11-10T21:53:51.380Z,8.90
2022-11-10T21:56:19.660Z,8.90
2022-11-10T21:58:47.707Z,8.90
2022-11-10T22:01:16.961Z,9.00
2022-11-10T22:03:45.206Z,9.00
2022-11-10T22:06:15.321Z,9.00
2022-11-10T22:08:44.353Z,9.10
2022-11-10T22:11:32.449Z,9.00
2022-11-10T22:14:18.476Z,9.00
2022-11-10T22:17:00.978Z,9.10
2022-11-10T22:19:29.234Z,9.20
2022-11-10T22:22:00.868Z,9.20
2022-11-10T22:24:31.453Z,9.30
2022-11-10T22:27:01.899Z,9.30
2022-11-10T22:29:32.020Z,9.30
2022-11-10T22:32:00.672Z,9.30
2022-11-10T22:34:28.990Z,9.40
2022-11-10T22:36:57.338Z,9.40
2022-11-10T22:39:45.564Z,9.40
2022-11-10T22:42:32.536Z,9.40
2022-11-10T22:45:00.800Z,9.50
2022-11-10T22:47:49.091Z,9.50
2022-11-10T22:50:17.446Z,9.50
2022-11-10T22:52:45.692Z,9.50
2022-11-10T22:55:13.878Z,9.50
2022-11-10T22:57:43.363Z,9.50
2022-11-10T23:00:12.131Z,9.60
2022-11-10T23:02:40.433Z,9.60
2022-11-10T23:05:08.993Z,9.60
2022-11-10T23:07:37.048Z,9.60
2022-11-10T23:10:05.569Z,9.60
2022-11-10T23:12:33.720Z,9.60
2022-11-10T23:15:03.157Z,9.70
2022-11-10T23:17:31.417Z,9.70
2022-11-10T23:19:59.508Z,9.60
2022-11-10T23:22:28.939Z,9.60
2022-11-10T23:24:57.651Z,9.60
2022-11-10T23:27:25.977Z,9.70
2022-11-10T23:29:54.081Z,9.70
2022-11-10T23:32:24.864Z,9.70
2022-11-10T23:34:53.001Z,9.70
2022-11-10T23:37:21.502Z,9.70
2022-11-10T23:39:49.520Z,9.70
2022-11-10T23:42:17.561Z,9.80
2022-11-10T23:44:45.733Z,9.80
2022-11-10T23:47:13.892Z,9.80
2022-11-10T23:49:43.461Z,9.80
2022-11-10T23:52:11.674Z,9.80
2022-11-10T23:54:41.710Z,9.80
2022-11-10T23:57:09.768Z,9.90
2022-11-10T23:59:37.849Z,9.90
